CDT,Max TemperatureF,Mean TemperatureF,Min TemperatureF,Max Dew PointF,MeanDew PointF,Min DewpointF,Max Humidity, Mean Humidity, Min Humidity, Max Sea Level PressureIn, Mean Sea Level PressureIn, Min Sea Level PressureIn, Max VisibilityMiles, Mean VisibilityMiles, Min VisibilityMiles, Max Wind SpeedMPH, Mean Wind SpeedMPH, Max Gust SpeedMPH,PrecipitationIn, CloudCover, Events, WindDirDegrees
2013-8-1,86,74,63,68,65,61,99,75,44,30.11,30.04,29.86,10,8,0,23,3,32,0.32,1,Fog-Rain-Thunderstorm,153
2013-8-2,83,75,67,68,65,60,95,71,54,30.03,29.93,29.85,10,10,10,9,3,,0.33,1,,92
2013-8-3,79,72,65,60,57,55,76,60,47,30.19,30.12,30.04,10,10,10,8,3,,0.00,1,,67
2013-8-4,79,70,61,67,60,55,87,67,54,30.19,30.12,30.03,10,9,2,15,4,20,0.00,2,,137
2013-8-5,86,77,69,74,71,66,95,83,62,30.04,29.92,29.85,10,9,4,12,5,16,0.00,5,,190
2013-8-6,87,77,67,74,71,65,98,80,57,29.95,29.84,29.81,10,8,1,15,2,24,0.37,2,Rain-Thunderstorm,192
2013-8-7,84,77,70,74,64,57,92,65,43,30.01,29.94,29.83,10,10,7,8,3,,0.00,0,,349
2013-8-8,79,72,65,66,62,59,87,72,52,30.04,30.01,29.96,10,10,10,8,2,,0.03,1,Thunderstorm,122
2013-8-9,80,71,62,69,63,58,99,75,50,30.16,30.08,30.03,10,8,0,9,2,,0.00,1,Fog,19
2013-8-10,83,71,59,63,60,58,99,71,43,30.22,30.16,30.09,10,9,0,12,3,16,0.00,1,Fog,157
2013-8-11,86,76,65,69,64,60,85,67,48,30.13,30.07,29.99,10,10,10,10,3,16,0.00,1,Rain-Thunderstorm,205
2013-8-12,85,77,69,69,63,56,88,63,37,30.08,30.03,30.01,10,10,5,9,2,,0.00,1,,19
2013-8-13,80,71,63,61,57,52,91,62,39,30.18,30.13,30.09,10,10,10,7,1,,0.00,1,,50
2013-8-14,76,68,60,62,57,55,89,69,51,30.21,30.15,30.09,10,10,5,10,3,,0.05,3,Rain,134
2013-8-15,66,64,61,62,60,58,96,88,77,30.11,30.08,30.05,10,9,2,17,7,18,0.85,8,Rain-Thunderstorm,121
2013-8-16,74,68,62,60,58,55,91,73,55,30.18,30.15,30.11,10,10,10,14,4,18,0.00,7,Rain,128
2013-8-17,79,69,59,61,58,54,98,71,44,30.21,30.16,30.12,10,10,3,13,3,17,0.00,3,,149
2013-8-18,80,68,55,63,59,55,99,73,46,30.17,30.12,30.06,10,8,1,12,3,18,0.00,0,,152
2013-8-19,86,75,64,68,65,62,92,72,51,30.08,30.01,29.94,10,10,7,15,6,21,0.00,1,,158
2013-8-20,89,78,68,70,68,67,92,69,51,29.98,29.95,29.91,10,10,7,16,8,23,0.00,0,,168
2013-8-21,92,82,71,71,68,66,86,66,47,30.01,29.97,29.94,10,10,10,13,6,20,0.00,0,,166
2013-8-22,84,78,71,70,67,65,84,71,54,30.11,30.06,29.98,10,10,10,9,4,16,0.00,1,Rain,101
2013-8-23,90,80,70,72,69,65,92,71,45,30.09,30.04,29.98,10,10,10,17,5,23,0.00,2,,138
2013-8-24,93,83,74,72,70,68,82,66,47,30.08,30.04,30.00,10,10,10,20,8,26,0.00,0,Rain-Thunderstorm,147
2013-8-25,95,84,73,74,71,69,88,65,42,30.13,30.08,30.04,10,10,10,15,9,23,0.00,0,,162
2013-8-26,96,84,72,71,69,68,90,61,41,30.09,30.03,29.95,10,10,7,15,7,22,0.00,0,,167
2013-8-27,97,88,78,69,67,65,68,54,37,29.97,29.94,29.90,10,10,10,14,7,23,0.00,0,,200
2013-8-28,95,82,68,68,65,60,88,59,31,30.01,29.98,29.94,10,10,10,12,4,,0.00,0,,161
2013-8-29,96,83,70,74,70,68,95,69,39,30.01,29.97,29.90,10,10,10,15,3,21,0.00,0,,147
2013-8-30,96,84,72,77,71,65,93,67,40,29.91,29.88,29.84,10,10,7,10,2,,0.00,0,,309
2013-8-31,94,84,73,73,71,62,91,71,35,29.90,29.84,29.78,10,10,10,7,1,,0.00,0,,189